Time;durP1;ratioP1;P1;durP2;ratioP2;P2;SDS_P1;SDS_P2;PMS_P1;PMS_P2;Temp;Humidity;BMP_temperature;BMP_pressure;BME280_temperature;BME280_humidity;BME280_pressure;Samples;Min_cycle;Max_cycle;Signal;HPM_P1;HPM_P2
2022/01/18 00:01:19;;;;;;;3.28;1.98;;;;;;;;;;5099499;28;20221;-43
2022/01/18 00:03:45;;;;;;;5.45;2.15;;;;;;;;;;5102975;28;20185;-43
2022/01/18 00:06:11;;;;;;;3.15;2.10;;;;;;;;;;5106640;28;20568;-43
2022/01/18 00:08:37;;;;;;;3.28;1.98;;;;;;;;;;5111813;28;20213;-43
2022/01/18 00:11:03;;;;;;;2.50;1.70;;;;;;;;;;5108116;28;20425;-43
2022/01/18 00:13:44;;;;;;;4.03;2.17;;;;;;;;;;5103663;28;20196;-43
2022/01/18 00:16:25;;;;;;;3.75;2.00;;;;;;;;;;5099471;28;20873;-43
2022/01/18 00:18:53;;;;;;;3.45;2.00;;;;;;;;;;5104987;28;20552;-43
2022/01/18 00:22:10;;;;;;;3.75;1.98;;;;;;;;;;5104799;28;20508;-43
2022/01/18 00:24:07;;;;;;;2.60;1.88;;;;;;;;;;5095343;28;20186;-43
2022/01/18 00:26:34;;;;;;;3.28;1.90;;;;;;;;;;5093087;28;20192;-43
2022/01/18 00:29:05;;;;;;;4.13;1.83;;;;;;;;;;5104124;28;20200;-44
2022/01/18 00:36:52;;;;;;;3.15;2.00;;;;;;;;;;5099145;28;20273;-44
2022/01/18 00:39:18;;;;;;;3.10;1.80;;;;;;;;;;5096522;28;20447;-44
2022/01/18 00:41:44;;;;;;;3.88;2.00;;;;;;;;;;5104509;28;20728;-44
2022/01/18 00:44:11;;;;;;;2.55;1.70;;;;;;;;;;5110533;28;20177;-44
2022/01/18 00:46:37;;;;;;;4.72;1.90;;;;;;;;;;5094121;28;20182;-43
2022/01/18 00:49:04;;;;;;;3.55;1.80;;;;;;;;;;5104026;28;20185;-43
2022/01/18 00:51:34;;;;;;;4.20;1.80;;;;;;;;;;5103057;28;20192;-43
2022/01/18 00:54:00;;;;;;;3.13;1.92;;;;;;;;;;5104399;28;20188;-44
2022/01/18 00:56:30;;;;;;;3.80;1.90;;;;;;;;;;5102265;28;20471;-44
2022/01/18 00:58:56;;;;;;;4.10;2.10;;;;;;;;;;5105500;28;20178;-44
2022/01/18 01:01:23;;;;;;;4.05;1.77;;;;;;;;;;5104887;28;20247;-44
2022/01/18 01:03:50;;;;;;;4.15;1.90;;;;;;;;;;5096680;28;20178;-45
2022/01/18 01:06:17;;;;;;;3.15;1.95;;;;;;;;;;5098068;28;20496;-44
2022/01/18 01:08:43;;;;;;;3.03;1.60;;;;;;;;;;5103001;28;20214;-44
2022/01/18 01:11:10;;;;;;;3.53;1.65;;;;;;;;;;5107831;28;20216;-44
2022/01/18 01:13:37;;;;;;;3.03;1.60;;;;;;;;;;5103170;28;20185;-44
2022/01/18 01:16:22;;;;;;;2.25;1.58;;;;;;;;;;5102792;28;20564;-44
2022/01/18 01:19:24;;;;;;;3.42;1.70;;;;;;;;;;5098733;28;20223;-44
2022/01/18 01:33:09;;;;;;;3.97;1.80;;;;;;;;;;5095555;28;20230;-44
2022/01/18 01:35:39;;;;;;;3.05;1.83;;;;;;;;;;5107716;28;20270;-44
2022/01/18 01:45:48;;;;;;;3.00;1.48;;;;;;;;;;5099760;28;20186;-44
2022/01/18 01:48:16;;;;;;;2.72;1.77;;;;;;;;;;5102642;28;20594;-44
2022/01/18 01:50:53;;;;;;;3.67;2.00;;;;;;;;;;5098398;28;20547;-44
2022/01/18 01:53:20;;;;;;;3.92;1.90;;;;;;;;;;5095754;28;20184;-44
2022/01/18 01:55:46;;;;;;;3.15;1.70;;;;;;;;;;5101581;28;20177;-44
2022/01/18 01:58:12;;;;;;;2.22;1.40;;;;;;;;;;5101921;28;20671;-44
2022/01/18 02:00:46;;;;;;;4.07;1.80;;;;;;;;;;5103320;28;20216;-44
2022/01/18 02:03:14;;;;;;;2.67;1.42;;;;;;;;;;5094790;28;20192;-44
2022/01/18 02:05:40;;;;;;;4.75;1.58;;;;;;;;;;5096388;28;20193;-44
2022/01/18 02:08:07;;;;;;;2.97;1.80;;;;;;;;;;5099780;28;20201;-44
2022/01/18 02:10:36;;;;;;;4.32;1.88;;;;;;;;;;5106818;28;20162;-44
2022/01/18 02:13:03;;;;;;;2.78;1.65;;;;;;;;;;5109294;28;20235;-44
2022/01/18 02:15:29;;;;;;;3.17;1.70;;;;;;;;;;5090621;28;20191;-44
2022/01/18 02:23:26;;;;;;;2.22;1.60;;;;;;;;;;5100978;28;20586;-44
2022/01/18 02:25:52;;;;;;;2.50;1.67;;;;;;;;;;5101242;28;20181;-44
2022/01/18 02:28:19;;;;;;;4.40;2.05;;;;;;;;;;5083834;28;20201;-44
2022/01/18 02:30:45;;;;;;;3.50;1.70;;;;;;;;;;5097012;28;20181;-44
2022/01/18 02:33:12;;;;;;;3.25;1.50;;;;;;;;;;5101297;28;20338;-44
2022/01/18 02:35:38;;;;;;;2.78;1.55;;;;;;;;;;5102393;28;20246;-44
2022/01/18 02:38:04;;;;;;;2.67;1.70;;;;;;;;;;5101601;28;20178;-44
2022/01/18 02:40:31;;;;;;;3.42;1.35;;;;;;;;;;5102783;28;20209;-44
2022/01/18 02:43:00;;;;;;;3.83;1.70;;;;;;;;;;5097668;28;20247;-44
2022/01/18 02:45:26;;;;;;;3.15;1.80;;;;;;;;;;5097221;28;20262;-44
2022/01/18 02:47:52;;;;;;;2.80;1.50;;;;;;;;;;5093243;28;20947;-44
2022/01/18 02:50:19;;;;;;;2.72;1.40;;;;;;;;;;5099344;28;20253;-44
2022/01/18 02:52:45;;;;;;;4.65;1.85;;;;;;;;;;5104561;28;20185;-44
2022/01/18 02:55:11;;;;;;;2.90;1.60;;;;;;;;;;5097090;28;20178;-44
2022/01/18 02:57:51;;;;;;;3.08;1.42;;;;;;;;;;5100908;28;20436;-44
2022/01/18 03:00:26;;;;;;;3.15;1.25;;;;;;;;;;5097550;28;20189;-44
2022/01/18 03:03:11;;;;;;;2.40;1.50;;;;;;;;;;5103656;28;20180;-44
2022/01/18 03:05:37;;;;;;;3.92;1.75;;;;;;;;;;5089919;28;20205;-44
2022/01/18 03:08:03;;;;;;;2.28;1.60;;;;;;;;;;5100114;28;20205;-44
2022/01/18 03:10:29;;;;;;;2.33;1.60;;;;;;;;;;5104920;28;20650;-44
2022/01/18 03:12:54;;;;;;;2.30;1.35;;;;;;;;;;5103072;28;20280;-44
2022/01/18 03:15:20;;;;;;;3.13;1.80;;;;;;;;;;5099342;28;20185;-44
2022/01/18 03:17:47;;;;;;;3.28;1.80;;;;;;;;;;5097460;28;20173;-44
2022/01/18 03:20:15;;;;;;;2.63;1.45;;;;;;;;;;5100743;28;20219;-44
2022/01/18 03:22:41;;;;;;;3.53;1.50;;;;;;;;;;5101331;28;20275;-44
2022/01/18 03:25:26;;;;;;;2.88;1.55;;;;;;;;;;5095877;28;20251;-44
2022/01/18 03:28:05;;;;;;;2.35;1.33;;;;;;;;;;5096676;28;20209;-44
2022/01/18 03:30:41;;;;;;;2.65;1.55;;;;;;;;;;5113932;28;20464;-44
2022/01/18 03:33:10;;;;;;;4.63;1.63;;;;;;;;;;5103021;28;20176;-44
2022/01/18 03:35:36;;;;;;;2.22;1.45;;;;;;;;;;5098848;28;20643;-44
2022/01/18 03:38:03;;;;;;;2.65;1.40;;;;;;;;;;5106629;28;20523;-44
2022/01/18 03:40:29;;;;;;;3.40;1.75;;;;;;;;;;5108334;28;20188;-44
2022/01/18 03:42:56;;;;;;;2.42;1.45;;;;;;;;;;5099929;28;20182;-44
2022/01/18 03:45:25;;;;;;;2.08;1.20;;;;;;;;;;5103496;28;20747;-44
2022/01/18 03:47:51;;;;;;;1.30;1.10;;;;;;;;;;5095536;28;20543;-44
2022/01/18 03:50:18;;;;;;;2.45;1.33;;;;;;;;;;5107263;28;20177;-44
2022/01/18 03:52:44;;;;;;;4.07;1.60;;;;;;;;;;5106368;28;20191;-44
2022/01/18 03:55:12;;;;;;;4.88;1.73;;;;;;;;;;5094295;28;20183;-44
2022/01/18 03:57:38;;;;;;;2.78;1.50;;;;;;;;;;5094909;28;20196;-44
2022/01/18 04:00:09;;;;;;;3.00;1.60;;;;;;;;;;5103879;28;20199;-44
2022/01/18 04:02:35;;;;;;;1.98;1.33;;;;;;;;;;5104160;28;20472;-44
2022/01/18 04:05:02;;;;;;;1.95;1.35;;;;;;;;;;5095307;28;20269;-44
2022/01/18 04:07:28;;;;;;;2.55;1.60;;;;;;;;;;5109410;28;20209;-44
2022/01/18 04:09:54;;;;;;;2.58;1.40;;;;;;;;;;5101326;28;20592;-44
2022/01/18 04:12:20;;;;;;;1.55;1.33;;;;;;;;;;5101107;28;20200;-44
2022/01/18 04:14:46;;;;;;;2.97;1.50;;;;;;;;;;5100457;28;20173;-44
2022/01/18 04:17:29;;;;;;;2.50;1.48;;;;;;;;;;5096363;28;20174;-44
2022/01/18 04:31:08;;;;;;;1.95;1.25;;;;;;;;;;5066264;28;20203;-44
2022/01/18 04:33:35;;;;;;;2.15;1.20;;;;;;;;;;5102246;28;20181;-44
2022/01/18 04:36:02;;;;;;;2.15;1.25;;;;;;;;;;5105298;28;20179;-44
2022/01/18 04:38:28;;;;;;;2.63;1.40;;;;;;;;;;5101466;28;20268;-44
2022/01/18 04:40:59;;;;;;;2.40;1.50;;;;;;;;;;5108605;28;20293;-44
2022/01/18 04:49:11;;;;;;;2.60;1.30;;;;;;;;;;5094396;28;20228;-44
2022/01/18 04:51:37;;;;;;;2.35;1.25;;;;;;;;;;5106147;28;20311;-44
2022/01/18 04:54:06;;;;;;;2.35;1.10;;;;;;;;;;5106940;28;20205;-44
2022/01/18 04:59:08;;;;;;;1.75;1.27;;;;;;;;;;5104543;28;20181;-44
2022/01/18 05:01:36;;;;;;;2.38;1.42;;;;;;;;;;5108398;28;20571;-44
2022/01/18 05:04:01;;;;;;;2.05;1.48;;;;;;;;;;5106555;28;20513;-44
2022/01/18 05:06:27;;;;;;;4.55;1.63;;;;;;;;;;5095358;28;20193;-45
2022/01/18 05:08:55;;;;;;;5.43;1.95;;;;;;;;;;5096718;28;20210;-44
2022/01/18 05:11:23;;;;;;;6.93;2.40;;;;;;;;;;5104901;28;20571;-44
2022/01/18 05:16:29;;;;;;;14.55;4.05;;;;;;;;;;5098485;28;20215;-44
2022/01/18 05:19:06;;;;;;;18.27;3.97;;;;;;;;;;5104331;28;20177;-44
2022/01/18 05:24:17;;;;;;;17.50;5.57;;;;;;;;;;5102617;28;20587;-45
2022/01/18 05:26:43;;;;;;;27.17;6.25;;;;;;;;;;5103509;28;20190;-44
2022/01/18 05:29:09;;;;;;;30.75;7.93;;;;;;;;;;5104473;28;20244;-44
2022/01/18 05:31:35;;;;;;;40.45;9.75;;;;;;;;;;5095211;28;20507;-44
2022/01/18 05:34:01;;;;;;;30.88;9.60;;;;;;;;;;5105976;28;20260;-45
2022/01/18 05:36:28;;;;;;;44.28;11.20;;;;;;;;;;5095708;28;20190;-44
2022/01/18 05:38:54;;;;;;;43.63;10.98;;;;;;;;;;5098527;28;20178;-44
2022/01/18 05:41:20;;;;;;;35.92;11.20;;;;;;;;;;5108989;28;20193;-44
2022/01/18 05:43:46;;;;;;;41.53;12.27;;;;;;;;;;5101273;28;20180;-45
2022/01/18 05:46:12;;;;;;;52.08;13.95;;;;;;;;;;5101764;28;20586;-44
2022/01/18 05:48:39;;;;;;;48.83;12.98;;;;;;;;;;5107634;28;20620;-44
2022/01/18 05:51:05;;;;;;;49.05;13.73;;;;;;;;;;5099816;28;20260;-44
2022/01/18 05:53:31;;;;;;;48.10;13.88;;;;;;;;;;5102821;28;20289;-44
2022/01/18 05:55:58;;;;;;;54.25;14.18;;;;;;;;;;5098417;28;20548;-44
2022/01/18 05:58:24;;;;;;;48.20;14.35;;;;;;;;;;5100588;28;20470;-44
2022/01/18 06:00:54;;;;;;;48.30;13.77;;;;;;;;;;5112870;28;20246;-44
2022/01/18 06:03:30;;;;;;;53.70;14.68;;;;;;;;;;5102495;28;20174;-44
2022/01/18 06:08:41;;;;;;;52.38;14.05;;;;;;;;;;5102412;28;20250;-44
2022/01/18 06:11:07;;;;;;;54.55;14.63;;;;;;;;;;5098215;28;20180;-44
2022/01/18 06:13:34;;;;;;;47.67;14.18;;;;;;;;;;5099319;28;20205;-44
2022/01/18 06:16:00;;;;;;;54.50;15.15;;;;;;;;;;5101685;28;20185;-44
2022/01/18 06:18:26;;;;;;;45.22;13.50;;;;;;;;;;5101221;28;20205;-44
2022/01/18 06:20:53;;;;;;;46.08;14.43;;;;;;;;;;5107707;28;20489;-44
2022/01/18 06:23:19;;;;;;;47.63;14.05;;;;;;;;;;5103370;28;20176;-44
2022/01/18 06:25:45;;;;;;;39.42;13.00;;;;;;;;;;5096133;28;20265;-44
2022/01/18 06:28:11;;;;;;;42.40;13.40;;;;;;;;;;5101460;28;20571;-45
2022/01/18 06:30:37;;;;;;;41.67;13.93;;;;;;;;;;5104598;28;20258;-44
2022/01/18 06:33:03;;;;;;;43.92;13.63;;;;;;;;;;5101802;28;20533;-44
2022/01/18 06:35:29;;;;;;;39.00;12.88;;;;;;;;;;5105184;28;20177;-44
2022/01/18 06:37:55;;;;;;;43.97;14.13;;;;;;;;;;5103224;28;20185;-44
2022/01/18 06:40:21;;;;;;;42.50;13.60;;;;;;;;;;5107993;28;20189;-44
2022/01/18 06:42:47;;;;;;;35.28;12.32;;;;;;;;;;5103365;28;20209;-44
2022/01/18 06:45:14;;;;;;;44.15;13.57;;;;;;;;;;5092087;28;20177;-44
2022/01/18 06:47:40;;;;;;;36.75;12.95;;;;;;;;;;5091828;28;20227;-44
2022/01/18 06:50:07;;;;;;;43.25;13.85;;;;;;;;;;5099300;28;20180;-44
2022/01/18 06:52:33;;;;;;;38.90;13.35;;;;;;;;;;5103564;28;20200;-44
2022/01/18 06:55:01;;;;;;;37.33;12.57;;;;;;;;;;5103301;28;20520;-44
2022/01/18 06:57:28;;;;;;;38.15;11.80;;;;;;;;;;5107640;28;20212;-44
2022/01/18 06:59:54;;;;;;;42.63;13.25;;;;;;;;;;5108090;28;20177;-44
2022/01/18 07:02:20;;;;;;;33.67;11.95;;;;;;;;;;5099795;28;20177;-44
2022/01/18 07:04:46;;;;;;;31.45;12.07;;;;;;;;;;5101310;28;20197;-44
2022/01/18 07:07:12;;;;;;;35.75;11.90;;;;;;;;;;5104497;28;20221;-44
2022/01/18 07:09:39;;;;;;;38.50;11.80;;;;;;;;;;5105426;28;20216;-44
2022/01/18 07:12:10;;;;;;;31.45;11.18;;;;;;;;;;5106383;28;20239;-44
2022/01/18 07:14:36;;;;;;;36.00;11.07;;;;;;;;;;5100615;28;20192;-44
2022/01/18 07:17:02;;;;;;;30.73;11.20;;;;;;;;;;5095015;28;20548;-44
2022/01/18 07:19:31;;;;;;;29.17;11.25;;;;;;;;;;5108452;28;20182;-45
2022/01/18 07:21:57;;;;;;;30.65;10.07;;;;;;;;;;5107601;28;20174;-44
2022/01/18 07:24:43;;;;;;;30.88;10.07;;;;;;;;;;5105865;28;20177;-44
2022/01/18 07:27:10;;;;;;;28.92;9.90;;;;;;;;;;5099292;28;20173;-44
2022/01/18 07:29:37;;;;;;;34.45;10.85;;;;;;;;;;5100889;28;20239;-44
2022/01/18 07:32:03;;;;;;;25.20;9.63;;;;;;;;;;5102728;28;20179;-44
2022/01/18 07:34:32;;;;;;;27.48;10.57;;;;;;;;;;5104383;28;20514;-44
2022/01/18 07:36:58;;;;;;;27.02;10.27;;;;;;;;;;5108391;28;20177;-44
2022/01/18 07:39:24;;;;;;;24.42;9.43;;;;;;;;;;5099107;28;20185;-44
2022/01/18 07:41:50;;;;;;;26.50;8.95;;;;;;;;;;5105460;28;20170;-44
2022/01/18 07:44:16;;;;;;;27.45;9.90;;;;;;;;;;5100955;28;20185;-44
2022/01/18 07:46:42;;;;;;;26.58;9.25;;;;;;;;;;5098793;28;20256;-44
2022/01/18 07:49:08;;;;;;;27.05;8.70;;;;;;;;;;5107064;28;20287;-44
2022/01/18 07:51:34;;;;;;;25.17;8.98;;;;;;;;;;5103293;28;20624;-44
2022/01/18 07:54:00;;;;;;;17.63;7.72;;;;;;;;;;5107926;28;20264;-44
2022/01/18 07:56:26;;;;;;;21.10;8.98;;;;;;;;;;5103103;28;20178;-44
2022/01/18 07:58:52;;;;;;;21.25;8.70;;;;;;;;;;5103119;28;20174;-43
2022/01/18 08:01:19;;;;;;;22.55;8.63;;;;;;;;;;5113869;28;20475;-43
2022/01/18 08:03:45;;;;;;;22.48;8.85;;;;;;;;;;5111794;28;20177;-43
2022/01/18 08:06:11;;;;;;;23.63;7.95;;;;;;;;;;5105092;28;20206;-43
2022/01/18 08:08:39;;;;;;;24.27;8.70;;;;;;;;;;5103325;28;20657;-43
2022/01/18 08:11:05;;;;;;;21.70;8.07;;;;;;;;;;5106472;28;20443;-43
2022/01/18 08:13:38;;;;;;;16.85;7.80;;;;;;;;;;5104419;28;20241;-43
2022/01/18 08:16:23;;;;;;;22.20;8.07;;;;;;;;;;5097446;28;20530;-44
2022/01/18 08:24:59;;;;;;;20.00;7.55;;;;;;;;;;5077992;28;20447;-44
2022/01/18 08:27:25;;;;;;;17.60;6.95;;;;;;;;;;5088603;28;20233;-44
2022/01/18 08:29:51;;;;;;;17.42;7.30;;;;;;;;;;5090427;28;20182;-43
2022/01/18 08:32:17;;;;;;;15.65;6.90;;;;;;;;;;5093967;28;20189;-43
2022/01/18 08:34:43;;;;;;;17.73;7.32;;;;;;;;;;5087752;28;20870;-43
2022/01/18 08:37:09;;;;;;;18.20;7.38;;;;;;;;;;5089706;28;20185;-43
2022/01/18 08:39:35;;;;;;;17.00;7.35;;;;;;;;;;5088402;28;20178;-43
2022/01/18 08:42:01;;;;;;;17.50;6.78;;;;;;;;;;5097983;28;20181;-43
2022/01/18 08:44:27;;;;;;;16.60;6.78;;;;;;;;;;5089660;28;20501;-43
2022/01/18 08:46:53;;;;;;;14.52;6.78;;;;;;;;;;5100323;28;20608;-43
2022/01/18 08:49:19;;;;;;;17.50;7.13;;;;;;;;;;5091317;28;20214;-43
2022/01/18 08:51:45;;;;;;;14.75;6.50;;;;;;;;;;5089081;28;20182;-43
2022/01/18 08:54:11;;;;;;;15.68;6.82;;;;;;;;;;5087596;28;20231;-43
2022/01/18 08:56:37;;;;;;;14.75;6.70;;;;;;;;;;5089313;28;20177;-43
2022/01/18 08:59:03;;;;;;;13.98;5.82;;;;;;;;;;5089294;28;20222;-43
2022/01/18 09:01:30;;;;;;;13.68;6.13;;;;;;;;;;5087167;28;20269;-43
2022/01/18 09:03:56;;;;;;;14.15;6.43;;;;;;;;;;5105859;28;20650;-43
2022/01/18 09:06:24;;;;;;;15.60;5.97;;;;;;;;;;5116150;28;20181;-43
2022/01/18 09:08:56;;;;;;;13.73;6.00;;;;;;;;;;5115918;28;20223;-43
2022/01/18 09:11:24;;;;;;;13.80;6.25;;;;;;;;;;5095817;28;20170;-43
2022/01/18 09:13:50;;;;;;;13.82;6.25;;;;;;;;;;5109121;28;20193;-43
2022/01/18 09:16:16;;;;;;;14.38;5.85;;;;;;;;;;5116162;28;20166;-44
2022/01/18 09:18:43;;;;;;;12.77;6.28;;;;;;;;;;5095207;28;20182;-44
2022/01/18 09:21:09;;;;;;;14.52;5.68;;;;;;;;;;5083279;28;20426;-44
2022/01/18 09:23:37;;;;;;;14.13;6.07;;;;;;;;;;5078688;28;20230;-43
2022/01/18 09:26:04;;;;;;;14.07;5.65;;;;;;;;;;5095466;28;20173;-44
2022/01/18 09:28:30;;;;;;;11.73;6.18;;;;;;;;;;5095639;28;20201;-44
2022/01/18 09:30:56;;;;;;;11.65;5.45;;;;;;;;;;5096306;28;20264;-44
2022/01/18 09:33:22;;;;;;;12.55;5.18;;;;;;;;;;5094787;28;20247;-43
2022/01/18 09:35:48;;;;;;;8.82;5.25;;;;;;;;;;5095026;28;20206;-43
2022/01/18 09:38:14;;;;;;;10.23;5.38;;;;;;;;;;5095361;28;20185;-43
2022/01/18 09:40:42;;;;;;;11.30;4.78;;;;;;;;;;5095499;28;20174;-43
2022/01/18 09:43:12;;;;;;;9.65;5.20;;;;;;;;;;5094875;28;20162;-43
2022/01/18 09:45:41;;;;;;;10.55;5.40;;;;;;;;;;5095303;28;20563;-43
2022/01/18 09:48:07;;;;;;;12.63;5.20;;;;;;;;;;5093370;28;20267;-43
2022/01/18 09:50:34;;;;;;;10.95;4.97;;;;;;;;;;5094984;28;20174;-43
2022/01/18 09:53:00;;;;;;;10.73;5.53;;;;;;;;;;5086082;28;20464;-43
2022/01/18 09:55:28;;;;;;;10.60;5.40;;;;;;;;;;5079913;28;20175;-43
2022/01/18 09:57:55;;;;;;;9.77;4.63;;;;;;;;;;5074875;28;20445;-43
2022/01/18 10:00:22;;;;;;;10.02;4.70;;;;;;;;;;5074912;28;20181;-44
2022/01/18 10:02:48;;;;;;;10.75;4.93;;;;;;;;;;5087172;28;20189;-44
2022/01/18 10:05:19;;;;;;;10.25;4.63;;;;;;;;;;5110709;28;20185;-43
2022/01/18 10:07:45;;;;;;;12.13;4.72;;;;;;;;;;5094062;28;20202;-44
2022/01/18 10:10:11;;;;;;;11.18;4.93;;;;;;;;;;5096157;28;20187;-43
2022/01/18 10:12:37;;;;;;;10.05;5.00;;;;;;;;;;5098156;28;20217;-43
2022/01/18 10:15:04;;;;;;;10.75;4.75;;;;;;;;;;5105082;28;20201;-43
2022/01/18 10:17:40;;;;;;;7.20;4.10;;;;;;;;;;5108405;28;20289;-43
2022/01/18 10:20:15;;;;;;;6.85;4.13;;;;;;;;;;5100678;28;20243;-44
2022/01/18 10:22:43;;;;;;;9.80;4.82;;;;;;;;;;5098569;28;20183;-44
2022/01/18 10:25:19;;;;;;;7.72;4.25;;;;;;;;;;5104129;28;20181;-43
2022/01/18 10:27:47;;;;;;;10.52;4.60;;;;;;;;;;5102583;28;20216;-44
2022/01/18 10:30:21;;;;;;;8.13;4.40;;;;;;;;;;5105546;28;20177;-43
2022/01/18 10:33:20;;;;;;;9.98;4.57;;;;;;;;;;5104623;28;20280;-43
2022/01/18 10:36:05;;;;;;;6.78;3.83;;;;;;;;;;5092581;28;20178;-44
2022/01/18 10:38:31;;;;;;;9.63;4.72;;;;;;;;;;5103152;28;20184;-43
2022/01/18 10:40:57;;;;;;;9.70;4.32;;;;;;;;;;5102995;28;20606;-44
2022/01/18 10:43:27;;;;;;;8.90;4.03;;;;;;;;;;5101443;28;20242;-43
2022/01/18 10:46:10;;;;;;;7.28;4.05;;;;;;;;;;5101364;28;20485;-44
2022/01/18 10:48:45;;;;;;;10.23;4.60;;;;;;;;;;5097645;28;20189;-44
2022/01/18 10:51:25;;;;;;;6.47;3.95;;;;;;;;;;5075252;28;20448;-43
2022/01/18 10:53:58;;;;;;;7.88;4.53;;;;;;;;;;5102575;28;20231;-43
2022/01/18 10:56:24;;;;;;;9.10;3.92;;;;;;;;;;5100055;28;20614;-44
2022/01/18 10:58:52;;;;;;;8.77;3.65;;;;;;;;;;5110676;28;20185;-44
2022/01/18 11:01:20;;;;;;;7.57;4.03;;;;;;;;;;5100674;28;20185;-44
2022/01/18 11:04:05;;;;;;;7.22;3.85;;;;;;;;;;5104118;28;20192;-44
2022/01/18 11:06:31;;;;;;;6.57;3.40;;;;;;;;;;5100163;28;20201;-44
2022/01/18 11:09:06;;;;;;;7.13;4.10;;;;;;;;;;5092892;28;20214;-43
2022/01/18 11:11:32;;;;;;;7.30;3.50;;;;;;;;;;5100549;28;20260;-43
2022/01/18 11:14:02;;;;;;;5.82;3.53;;;;;;;;;;5101602;28;20591;-43
2022/01/18 11:16:28;;;;;;;6.32;3.58;;;;;;;;;;5101725;28;20459;-43
2022/01/18 11:18:56;;;;;;;6.70;3.38;;;;;;;;;;5093932;28;20196;-43
2022/01/18 11:21:24;;;;;;;5.93;3.63;;;;;;;;;;5099884;28;20189;-44
2022/01/18 11:23:52;;;;;;;4.95;3.55;;;;;;;;;;5102695;28;20261;-44
2022/01/18 11:26:19;;;;;;;9.02;4.10;;;;;;;;;;5103785;28;20193;-43
2022/01/18 11:28:46;;;;;;;7.05;3.63;;;;;;;;;;5099300;28;20217;-43
2022/01/18 11:31:12;;;;;;;5.90;3.15;;;;;;;;;;5099051;28;20192;-43
2022/01/18 11:33:38;;;;;;;6.78;3.50;;;;;;;;;;5105403;28;20505;-44
2022/01/18 11:36:07;;;;;;;7.13;3.60;;;;;;;;;;5104031;28;20165;-43
2022/01/18 11:38:41;;;;;;;4.60;3.22;;;;;;;;;;5106171;28;20445;-43
2022/01/18 11:41:08;;;;;;;4.93;3.17;;;;;;;;;;5097190;28;20190;-43
2022/01/18 11:43:34;;;;;;;5.78;3.20;;;;;;;;;;5104805;28;20274;-43
2022/01/18 11:46:00;;;;;;;5.65;3.13;;;;;;;;;;5100919;28;20185;-43
2022/01/18 11:48:26;;;;;;;4.00;2.78;;;;;;;;;;5103967;28;20472;-43
2022/01/18 11:51:06;;;;;;;7.68;3.38;;;;;;;;;;5106836;28;20184;-43
2022/01/18 11:53:42;;;;;;;4.85;3.08;;;;;;;;;;5101919;28;20243;-44
2022/01/18 11:56:28;;;;;;;4.03;2.85;;;;;;;;;;5101474;28;20533;-44
2022/01/18 11:59:15;;;;;;;3.88;2.72;;;;;;;;;;5100668;28;20515;-44
2022/01/18 12:01:48;;;;;;;5.32;3.08;;;;;;;;;;5111083;28;20486;-43
2022/01/18 12:04:14;;;;;;;4.35;2.65;;;;;;;;;;5108711;28;20192;-43
2022/01/18 12:06:46;;;;;;;5.43;2.63;;;;;;;;;;5104303;28;20193;-43
2022/01/18 12:09:31;;;;;;;5.72;2.97;;;;;;;;;;5093192;28;20208;-43
2022/01/18 12:11:58;;;;;;;4.38;3.08;;;;;;;;;;5104944;28;20485;-43
2022/01/18 12:14:34;;;;;;;4.47;2.63;;;;;;;;;;5095401;28;20256;-43
2022/01/18 12:17:13;;;;;;;4.68;2.90;;;;;;;;;;5105151;28;20189;-43
2022/01/18 12:19:46;;;;;;;4.70;2.78;;;;;;;;;;5098594;28;20201;-43
2022/01/18 12:22:12;;;;;;;5.65;2.88;;;;;;;;;;5097166;28;20452;-43
2022/01/18 12:24:44;;;;;;;5.78;2.90;;;;;;;;;;5103671;28;20182;-43
2022/01/18 12:27:26;;;;;;;4.28;2.40;;;;;;;;;;5094880;28;20188;-43
2022/01/18 12:30:15;;;;;;;4.35;2.75;;;;;;;;;;5100331;28;20515;-44
2022/01/18 12:32:56;;;;;;;3.88;2.50;;;;;;;;;;5100918;28;20451;-44
2022/01/18 12:35:25;;;;;;;3.28;2.30;;;;;;;;;;5106291;28;20180;-44
2022/01/18 12:37:51;;;;;;;4.18;2.70;;;;;;;;;;5109714;28;20975;-44
2022/01/18 12:40:24;;;;;;;3.55;2.35;;;;;;;;;;5101929;28;20268;-43
2022/01/18 12:45:28;;;;;;;3.10;2.20;;;;;;;;;;5075323;28;20465;-44
2022/01/18 12:47:55;;;;;;;3.53;2.40;;;;;;;;;;5092913;28;20462;-43
2022/01/18 12:50:26;;;;;;;4.57;2.47;;;;;;;;;;5094673;28;20173;-43
2022/01/18 12:52:54;;;;;;;2.15;1.63;;;;;;;;;;5094989;28;20211;-43
2022/01/18 12:55:29;;;;;;;4.97;2.35;;;;;;;;;;5112337;28;20192;-43
2022/01/18 12:58:01;;;;;;;2.55;2.13;;;;;;;;;;5095867;28;20174;-43
2022/01/18 13:00:27;;;;;;;3.85;2.20;;;;;;;;;;5096214;28;20174;-43
2022/01/18 13:02:57;;;;;;;5.22;2.60;;;;;;;;;;5096158;28;20249;-43
2022/01/18 13:05:33;;;;;;;4.53;2.35;;;;;;;;;;5089429;28;20641;-43
2022/01/18 13:08:00;;;;;;;3.55;2.15;;;;;;;;;;5095052;28;20239;-43
2022/01/18 13:10:39;;;;;;;4.07;1.95;;;;;;;;;;5096014;28;20186;-43
2022/01/18 13:13:06;;;;;;;3.20;2.13;;;;;;;;;;5095758;28;20212;-43
2022/01/18 13:15:47;;;;;;;3.35;2.17;;;;;;;;;;5095910;28;20220;-43
2022/01/18 13:24:24;;;;;;;3.13;1.90;;;;;;;;;;5093490;28;20185;-43
2022/01/18 13:26:54;;;;;;;4.88;2.45;;;;;;;;;;5091884;28;20204;-43
2022/01/18 13:29:27;;;;;;;2.65;1.90;;;;;;;;;;5114295;28;20216;-43
2022/01/18 13:32:22;;;;;;;2.80;2.00;;;;;;;;;;5109030;28;20173;-43
2022/01/18 13:34:50;;;;;;;2.20;1.95;;;;;;;;;;5093012;28;20182;-43
2022/01/18 13:37:17;;;;;;;3.15;1.95;;;;;;;;;;5095742;28;20576;-43
2022/01/18 13:39:56;;;;;;;2.88;2.10;;;;;;;;;;5094396;28;20492;-43
2022/01/18 13:42:29;;;;;;;2.45;2.10;;;;;;;;;;5089660;28;20279;-43
2022/01/18 13:45:13;;;;;;;2.17;1.70;;;;;;;;;;5095572;28;20189;-43
2022/01/18 13:47:44;;;;;;;2.33;1.70;;;;;;;;;;5111847;28;20250;-43
2022/01/18 13:50:29;;;;;;;3.38;1.80;;;;;;;;;;5115702;28;20196;-43
2022/01/18 13:53:07;;;;;;;2.42;1.77;;;;;;;;;;5106085;28;20185;-43
2022/01/18 13:55:33;;;;;;;2.58;1.77;;;;;;;;;;5094537;28;20181;-43
2022/01/18 13:58:00;;;;;;;4.05;1.88;;;;;;;;;;5093749;28;20190;-43
2022/01/18 14:00:27;;;;;;;2.95;2.00;;;;;;;;;;5088361;28;20190;-43
2022/01/18 14:02:53;;;;;;;1.98;1.75;;;;;;;;;;5091217;28;20189;-43
2022/01/18 14:05:23;;;;;;;3.05;2.00;;;;;;;;;;5093789;28;20269;-43
2022/01/18 14:07:49;;;;;;;2.95;1.90;;;;;;;;;;5094031;28;20208;-43
2022/01/18 14:10:15;;;;;;;3.20;1.70;;;;;;;;;;5092277;28;20185;-44
2022/01/18 14:12:42;;;;;;;2.28;1.58;;;;;;;;;;5095646;28;21109;-44
2022/01/18 14:15:08;;;;;;;3.38;1.90;;;;;;;;;;5114244;28;20591;-44
2022/01/18 14:17:34;;;;;;;2.90;1.80;;;;;;;;;;5098944;28;20248;-44
2022/01/18 14:20:08;;;;;;;2.30;1.65;;;;;;;;;;5099878;28;20548;-43
2022/01/18 14:22:41;;;;;;;1.92;1.60;;;;;;;;;;5101452;28;20522;-44
2022/01/18 14:25:08;;;;;;;2.83;1.90;;;;;;;;;;5089383;28;20193;-43
2022/01/18 14:27:39;;;;;;;3.03;2.03;;;;;;;;;;5105649;28;20208;-43
2022/01/18 14:30:05;;;;;;;2.13;1.55;;;;;;;;;;5101159;28;20177;-43
2022/01/18 14:32:34;;;;;;;2.83;1.85;;;;;;;;;;5102061;28;20288;-43
2022/01/18 14:35:02;;;;;;;2.55;1.90;;;;;;;;;;5098362;28;20180;-43
2022/01/18 14:37:42;;;;;;;2.95;1.90;;;;;;;;;;5104297;28;20620;-43
2022/01/18 14:40:19;;;;;;;1.50;1.40;;;;;;;;;;5084822;28;20192;-43
2022/01/18 14:42:49;;;;;;;2.35;1.70;;;;;;;;;;5102273;28;20177;-43
2022/01/18 14:47:43;;;;;;;2.15;1.60;;;;;;;;;;5099491;28;20212;-43
2022/01/18 14:50:10;;;;;;;3.85;1.88;;;;;;;;;;5110180;28;20177;-43
2022/01/18 14:52:37;;;;;;;2.17;1.73;;;;;;;;;;5101129;28;20186;-43
2022/01/18 14:55:04;;;;;;;3.97;1.70;;;;;;;;;;5100112;28;20177;-43
2022/01/18 14:57:31;;;;;;;4.10;1.85;;;;;;;;;;5100222;28;20239;-43
2022/01/18 14:59:57;;;;;;;4.15;1.60;;;;;;;;;;5102297;28;20259;-43
2022/01/18 15:02:24;;;;;;;7.80;1.90;;;;;;;;;;5101521;28;20567;-43
2022/01/18 15:04:50;;;;;;;3.90;1.40;;;;;;;;;;5095977;28;20162;-44
2022/01/18 15:07:17;;;;;;;4.55;1.70;;;;;;;;;;5093529;28;20199;-44
2022/01/18 15:09:43;;;;;;;7.20;1.70;;;;;;;;;;5093982;28;20212;-44
2022/01/18 15:12:09;;;;;;;5.78;2.00;;;;;;;;;;5091907;28;20209;-44
2022/01/18 15:14:35;;;;;;;6.75;1.95;;;;;;;;;;5093175;28;20182;-44
2022/01/18 15:17:02;;;;;;;5.72;1.58;;;;;;;;;;5092971;28;20190;-44
2022/01/18 15:19:28;;;;;;;5.93;1.73;;;;;;;;;;5076280;28;20186;-44
2022/01/18 15:21:54;;;;;;;3.92;1.77;;;;;;;;;;5073546;28;20178;-44
2022/01/18 15:24:20;;;;;;;3.22;2.00;;;;;;;;;;5070808;28;20186;-44
2022/01/18 15:26:46;;;;;;;3.42;1.75;;;;;;;;;;5094309;28;20190;-43
2022/01/18 15:29:12;;;;;;;4.20;1.38;;;;;;;;;;5093401;28;20204;-43
2022/01/18 15:31:38;;;;;;;5.70;1.85;;;;;;;;;;5093705;28;20174;-43
2022/01/18 15:34:06;;;;;;;4.18;1.60;;;;;;;;;;5092981;28;20211;-43
2022/01/18 15:36:32;;;;;;;3.08;1.52;;;;;;;;;;5093591;28;20173;-43
2022/01/18 15:38:58;;;;;;;4.75;1.85;;;;;;;;;;5093755;28;20173;-44
2022/01/18 15:41:23;;;;;;;4.05;1.52;;;;;;;;;;5093614;28;20173;-44
2022/01/18 15:43:50;;;;;;;2.78;1.95;;;;;;;;;;5098223;28;20189;-44
2022/01/18 15:46:16;;;;;;;5.60;1.65;;;;;;;;;;5097448;28;20201;-44
2022/01/18 15:48:47;;;;;;;2.38;1.40;;;;;;;;;;5081928;28;20204;-44
2022/01/18 15:51:13;;;;;;;4.38;1.50;;;;;;;;;;5093193;28;20516;-44
2022/01/18 15:53:39;;;;;;;5.88;1.85;;;;;;;;;;5093019;28;20162;-44
2022/01/18 15:56:06;;;;;;;3.88;2.20;;;;;;;;;;5093637;28;20173;-44
2022/01/18 15:58:33;;;;;;;3.53;1.80;;;;;;;;;;5090049;28;20445;-44
2022/01/18 16:00:59;;;;;;;7.88;3.25;;;;;;;;;;5090419;28;20330;-44